createdAt,value
2016-12-02T00:00:09.361Z,84.01
2016-12-02T00:01:09.376Z,83.25
2016-12-02T00:02:09.390Z,83.44
2016-12-02T00:03:09.403Z,83.06
2016-12-02T00:04:09.422Z,83.25
2016-12-02T00:05:09.433Z,83.25
2016-12-02T00:06:09.445Z,83.34
2016-12-02T00:07:09.776Z,83.25
2016-12-02T00:08:09.475Z,83.06
2016-12-02T00:09:09.491Z,83.06
2016-12-02T00:10:09.503Z,82.96
2016-12-02T00:11:09.515Z,83.34
2016-12-02T00:12:09.530Z,83.06
2016-12-02T00:13:09.546Z,83.34
2016-12-02T00:14:09.565Z,83.06
2016-12-02T00:15:09.573Z,83.15
2016-12-02T00:16:09.587Z,83.15
2016-12-02T00:17:09.602Z,83.15
2016-12-02T00:18:09.619Z,83.06
2016-12-02T00:19:09.628Z,83.06
2016-12-02T00:20:09.644Z,83.25
2016-12-02T00:21:09.654Z,83.25
2016-12-02T00:22:09.671Z,83.15
2016-12-02T00:23:09.684Z,82.96
2016-12-02T00:24:09.698Z,82.58
2016-12-02T00:25:09.712Z,83.06
2016-12-02T00:26:09.727Z,82.58
2016-12-02T00:27:09.742Z,82.68
2016-12-02T00:28:09.756Z,82.58
2016-12-02T00:29:09.768Z,82.58
2016-12-02T00:30:09.783Z,82.68
2016-12-02T00:31:09.796Z,82.68
2016-12-02T00:32:09.810Z,82.68
2016-12-02T00:33:09.824Z,83.06
2016-12-02T00:34:09.844Z,82.96
2016-12-02T00:35:10.166Z,82.68
2016-12-02T00:36:09.867Z,82.87
2016-12-02T00:37:09.881Z,83.25
2016-12-02T00:38:09.896Z,83.06
2016-12-02T00:39:09.911Z,83.25
2016-12-02T00:40:09.925Z,83.15
2016-12-02T00:41:09.938Z,82.58
2016-12-02T00:42:09.953Z,83.25
2016-12-02T00:43:09.966Z,83.06
2016-12-02T00:44:09.985Z,83.15
2016-12-02T00:45:09.995Z,82.96
2016-12-02T00:46:10.007Z,83.06
2016-12-02T00:47:10.025Z,83.25
2016-12-02T00:48:10.348Z,83.25
2016-12-02T00:49:10.050Z,82.96
2016-12-02T00:50:10.064Z,82.96
2016-12-02T00:51:10.079Z,83.06
2016-12-02T00:52:10.092Z,83.25
2016-12-02T00:53:10.108Z,82.87
2016-12-02T00:54:10.122Z,83.06
2016-12-02T00:55:10.134Z,82.68
2016-12-02T00:56:10.148Z,83.06
2016-12-02T00:57:10.161Z,83.15
2016-12-02T00:58:10.176Z,83.06
2016-12-02T00:59:10.189Z,83.25
2016-12-02T01:00:10.211Z,83.25
2016-12-02T01:01:10.221Z,83.25
2016-12-02T01:02:10.234Z,83.06
2016-12-02T01:03:10.247Z,83.25
2016-12-02T01:04:10.260Z,83.06
2016-12-02T01:05:10.276Z,82.77
2016-12-02T01:06:10.289Z,82.77
2016-12-02T01:07:10.305Z,82.77
2016-12-02T01:08:10.316Z,82.87
2016-12-02T01:09:10.328Z,82.96
2016-12-02T01:10:10.347Z,83.25
2016-12-02T01:11:10.366Z,82.87
2016-12-02T01:12:10.374Z,82.96
2016-12-02T01:13:10.387Z,82.68
2016-12-02T01:14:10.414Z,83.15
2016-12-02T01:15:10.417Z,82.96
2016-12-02T01:16:10.430Z,82.58
2016-12-02T01:17:10.442Z,83.06
2016-12-02T01:18:10.459Z,83.25
2016-12-02T01:19:10.472Z,83.25
2016-12-02T01:20:10.485Z,83.06
2016-12-02T01:21:10.499Z,83.19
2016-12-02T01:22:10.516Z,83.15
2016-12-02T01:23:10.529Z,83.39
2016-12-02T01:24:10.540Z,83.34
2016-12-02T01:25:10.554Z,83.44
2016-12-02T01:26:10.571Z,83.15
2016-12-02T01:27:10.586Z,83.34
2016-12-02T01:28:10.601Z,83.25
2016-12-02T01:29:10.613Z,83.72
2016-12-02T01:30:10.626Z,83.95
2016-12-02T01:31:10.641Z,83.72
2016-12-02T01:32:10.658Z,84.1
2016-12-02T01:33:10.669Z,84.2
2016-12-02T01:34:10.683Z,83.48
2016-12-02T01:35:10.698Z,83.48
2016-12-02T01:36:10.711Z,83.67
2016-12-02T01:37:10.727Z,83.53
2016-12-02T01:38:10.738Z,83.44
2016-12-02T01:39:10.755Z,83.25
2016-12-02T01:40:10.767Z,83.53
2016-12-02T01:41:10.782Z,83.25
2016-12-02T01:42:10.795Z,83.53
2016-12-02T01:43:10.822Z,83.44
2016-12-02T01:44:10.828Z,83.82
2016-12-02T01:45:10.838Z,83.62
2016-12-02T01:46:10.855Z,83.91
2016-12-02T01:47:10.869Z,84.2
2016-12-02T01:48:10.881Z,84.01
2016-12-02T01:49:10.896Z,84.1
2016-12-02T01:50:10.910Z,84.1
2016-12-02T01:51:10.922Z,84.2
2016-12-02T01:52:10.966Z,83.82
2016-12-02T01:53:10.952Z,83.72
2016-12-02T01:54:10.967Z,84.14
2016-12-02T01:55:10.982Z,83.76
2016-12-02T01:56:10.996Z,84.24
2016-12-02T01:57:11.010Z,83.91
2016-12-02T01:58:11.023Z,83.91
2016-12-02T01:59:11.038Z,83.95
2016-12-02T02:00:11.049Z,83.86
2016-12-02T02:01:11.067Z,84.14
2016-12-02T02:02:11.084Z,83.72
2016-12-02T02:03:11.099Z,83.91
2016-12-02T02:04:11.108Z,84.24
2016-12-02T02:05:11.120Z,84.24
2016-12-02T02:06:11.136Z,83.86
2016-12-02T02:07:11.149Z,83.72
2016-12-02T02:08:11.165Z,83.95
2016-12-02T02:09:11.202Z,83.86
2016-12-02T02:10:11.194Z,83.67
2016-12-02T02:11:11.209Z,83.95
2016-12-02T02:12:11.223Z,84.05
2016-12-02T02:13:11.236Z,83.76
2016-12-02T02:14:11.249Z,84.05
2016-12-02T02:15:11.265Z,83.95
2016-12-02T02:16:11.278Z,84.05
2016-12-02T02:17:11.294Z,83.91
2016-12-02T02:18:11.310Z,84.14
2016-12-02T02:19:11.323Z,84.1
2016-12-02T02:20:11.338Z,84.52
2016-12-02T02:21:11.349Z,83.95
2016-12-02T02:22:11.364Z,84.05
2016-12-02T02:23:11.379Z,84.05
2016-12-02T02:24:11.390Z,84.33
2016-12-02T02:25:11.407Z,84.52
2016-12-02T02:26:11.420Z,84.43
2016-12-02T02:27:11.434Z,84.52
2016-12-02T02:28:11.449Z,84.2
2016-12-02T02:29:11.461Z,84.24
2016-12-02T02:30:11.478Z,84.01
2016-12-02T02:31:11.491Z,84.24
2016-12-02T02:32:11.505Z,84.05
2016-12-02T02:33:11.518Z,84.33
2016-12-02T02:34:11.535Z,84.05
2016-12-02T02:35:11.548Z,83.86
2016-12-02T02:36:11.562Z,84.05
2016-12-02T02:37:11.576Z,84.05
2016-12-02T02:38:11.590Z,84.33
2016-12-02T02:39:11.606Z,84.33
2016-12-02T02:40:11.617Z,83.95
2016-12-02T02:41:11.633Z,84.05
2016-12-02T02:42:11.648Z,83.95
2016-12-02T02:43:11.662Z,84.05
2016-12-02T02:44:11.680Z,84.05
2016-12-02T02:45:11.691Z,84.05
2016-12-02T02:46:11.704Z,84.05
2016-12-02T02:47:11.719Z,84.2
2016-12-02T02:48:11.733Z,83.95
2016-12-02T02:49:11.750Z,84.33
2016-12-02T02:50:11.762Z,83.82
2016-12-02T02:51:11.775Z,83.95
2016-12-02T02:52:11.790Z,83.95
2016-12-02T02:53:11.804Z,83.95
2016-12-02T02:54:11.817Z,84.33
2016-12-02T02:55:11.835Z,84.24
2016-12-02T02:56:11.847Z,84.33
2016-12-02T02:57:11.860Z,84.33
2016-12-02T02:58:11.874Z,84.43
2016-12-02T02:59:11.891Z,84.33
2016-12-02T03:00:11.904Z,84.58
2016-12-02T03:01:11.917Z,84.43
2016-12-02T03:02:11.933Z,84.43
2016-12-02T03:03:11.951Z,84.62
2016-12-02T03:04:11.959Z,84.52
2016-12-02T03:05:11.972Z,84.33
2016-12-02T03:06:11.987Z,84.33
2016-12-02T03:07:12.002Z,84.43
2016-12-02T03:08:12.016Z,84.29
2016-12-02T03:09:12.031Z,84.52
2016-12-02T03:10:12.044Z,84.24
2016-12-02T03:11:12.059Z,84.39
2016-12-02T03:12:12.087Z,84.33
2016-12-02T03:13:12.089Z,84.14
2016-12-02T03:14:12.103Z,84.33
2016-12-02T03:15:12.116Z,84.43
2016-12-02T03:16:12.129Z,84.91
2016-12-02T03:17:12.144Z,84.33
2016-12-02T03:18:12.157Z,84.43
2016-12-02T03:19:12.173Z,84.33
2016-12-02T03:20:12.186Z,84.81
2016-12-02T03:21:12.203Z,84.1
2016-12-02T03:22:12.219Z,84.48
2016-12-02T03:23:12.233Z,84.52
2016-12-02T03:24:12.243Z,84.43
2016-12-02T03:25:12.257Z,84.43
2016-12-02T03:26:12.274Z,84.52
2016-12-02T03:27:12.292Z,84.48
2016-12-02T03:28:12.303Z,85.1
2016-12-02T03:29:12.323Z,84.62
2016-12-02T03:30:12.330Z,84.81
2016-12-02T03:31:12.344Z,85.19
2016-12-02T03:32:12.358Z,84.33
2016-12-02T03:33:12.373Z,84.43
2016-12-02T03:34:12.389Z,84.33
2016-12-02T03:35:12.403Z,85.28
2016-12-02T03:36:12.418Z,84.33
2016-12-02T03:37:12.433Z,85.1
2016-12-02T03:38:12.443Z,84.29
2016-12-02T03:39:12.458Z,84.58
2016-12-02T03:40:12.474Z,84.81
2016-12-02T03:41:12.485Z,84.52
2016-12-02T03:42:12.501Z,84.62
2016-12-02T03:43:12.515Z,84.24
2016-12-02T03:44:12.533Z,85.15
2016-12-02T03:45:12.544Z,84.81
2016-12-02T03:46:12.561Z,84.81
2016-12-02T03:47:12.574Z,84.43
2016-12-02T03:48:12.591Z,84.43
2016-12-02T03:49:12.600Z,84.2
2016-12-02T03:50:12.615Z,84.2
2016-12-02T03:51:12.632Z,84.29
2016-12-02T03:52:12.647Z,84.52
2016-12-02T03:53:12.659Z,84.33
2016-12-02T03:54:12.672Z,84.2
2016-12-02T03:55:12.688Z,84.77
2016-12-02T03:56:12.701Z,84.24
2016-12-02T03:57:12.722Z,84.48
2016-12-02T03:58:12.729Z,84.01
2016-12-02T03:59:12.746Z,84.33
2016-12-02T04:00:12.759Z,84.29
2016-12-02T04:01:12.772Z,84.52
2016-12-02T04:02:12.789Z,84.2
2016-12-02T04:03:12.800Z,84.29
2016-12-02T04:04:12.815Z,84.24
2016-12-02T04:05:12.830Z,84.43
2016-12-02T04:06:12.845Z,84.29
2016-12-02T04:07:12.858Z,84.2
2016-12-02T04:08:12.871Z,84.29
2016-12-02T04:09:12.887Z,84.33
2016-12-02T04:10:12.901Z,84.58
2016-12-02T04:11:12.915Z,84.48
2016-12-02T04:12:12.929Z,84.58
2016-12-02T04:13:12.945Z,84.48
2016-12-02T04:14:12.961Z,84.39
2016-12-02T04:15:12.972Z,84.48
2016-12-02T04:16:12.987Z,84.48
2016-12-02T04:17:13.000Z,84.01
2016-12-02T04:18:13.015Z,84.1
2016-12-02T04:19:13.028Z,83.91
2016-12-02T04:20:13.043Z,83.82
2016-12-02T04:21:13.058Z,84.01
2016-12-02T04:22:13.072Z,84.01
2016-12-02T04:23:13.087Z,84.01
2016-12-02T04:24:13.099Z,84.01
2016-12-02T04:25:13.113Z,84.48
2016-12-02T04:26:13.127Z,84.29
2016-12-02T04:27:13.143Z,83.91
2016-12-02T04:28:13.156Z,84.29
2016-12-02T04:29:13.169Z,84.1
2016-12-02T04:30:13.184Z,84.01
2016-12-02T04:31:13.199Z,83.91
2016-12-02T04:32:13.218Z,84.1
2016-12-02T04:33:13.226Z,84.01
2016-12-02T04:34:13.241Z,84.29
2016-12-02T04:35:13.280Z,83.91
2016-12-02T04:36:13.270Z,83.62
2016-12-02T04:37:13.283Z,83.62
2016-12-02T04:38:13.300Z,84.01
2016-12-02T04:39:13.315Z,83.72
2016-12-02T04:40:13.331Z,83.53
2016-12-02T04:41:13.342Z,83.82
2016-12-02T04:42:13.363Z,83.82
2016-12-02T04:43:13.369Z,84.01
2016-12-02T04:44:13.384Z,83.62
2016-12-02T04:45:13.398Z,84.1
2016-12-02T04:46:13.412Z,84.48
2016-12-02T04:47:13.426Z,84.2
2016-12-02T04:48:13.767Z,84.1
2016-12-02T04:49:13.455Z,83.44
2016-12-02T04:50:13.499Z,83.44
2016-12-02T04:51:13.481Z,83.44
2016-12-02T04:52:13.499Z,83.44
2016-12-02T04:53:13.511Z,83.53
2016-12-02T04:54:13.525Z,83.62
2016-12-02T04:55:13.538Z,83.15
2016-12-02T04:56:13.552Z,83.15
2016-12-02T04:57:13.567Z,83.44
2016-12-02T04:58:13.583Z,83.15
2016-12-02T04:59:13.595Z,83.25
2016-12-02T05:00:13.609Z,83.15
2016-12-02T05:01:13.623Z,82.77
2016-12-02T05:02:13.639Z,82.58
2016-12-02T05:03:13.653Z,82.68
2016-12-02T05:04:13.982Z,82.96
2016-12-02T05:05:13.682Z,82.87
2016-12-02T05:06:13.693Z,82.49
2016-12-02T05:07:13.707Z,82.29
2016-12-02T05:08:13.722Z,82.39
2016-12-02T05:09:13.739Z,82.68
2016-12-02T05:10:13.751Z,82.58
2016-12-02T05:11:13.817Z,82.58
2016-12-02T05:12:13.779Z,82.1
2016-12-02T05:13:13.803Z,82.1
2016-12-02T05:14:13.806Z,82.58
2016-12-02T05:15:13.832Z,82.2
2016-12-02T05:16:13.838Z,82.01
2016-12-02T05:17:13.851Z,82.68
2016-12-02T05:18:13.865Z,82.29
2016-12-02T05:19:13.882Z,81.92
2016-12-02T05:20:13.895Z,82.01
2016-12-02T05:21:13.919Z,82.1
2016-12-02T05:22:13.920Z,82.39
2016-12-02T05:23:13.943Z,82.29
2016-12-02T05:24:13.949Z,81.63
2016-12-02T05:25:13.964Z,81.73
2016-12-02T05:26:13.977Z,82.2
2016-12-02T05:27:13.993Z,81.82
2016-12-02T05:28:14.010Z,81.44
2016-12-02T05:29:14.018Z,81.92
2016-12-02T05:30:14.031Z,81.44
2016-12-02T05:31:14.047Z,81.82
2016-12-02T05:32:14.060Z,81.16
2016-12-02T05:33:14.084Z,81.25
2016-12-02T05:34:14.087Z,81.25
2016-12-02T05:35:14.107Z,80.87
2016-12-02T05:36:14.115Z,80.83
2016-12-02T05:37:14.144Z,80.4
2016-12-02T05:38:14.142Z,80.49
2016-12-02T05:39:14.158Z,80.16
2016-12-02T05:40:14.170Z,79.79
2016-12-02T05:41:14.183Z,79.92
2016-12-02T05:42:14.201Z,79.69
2016-12-02T05:43:14.230Z,79.97
2016-12-02T05:44:14.229Z,79.31
2016-12-02T05:45:14.246Z,79.6
2016-12-02T05:46:14.254Z,79.41
2016-12-02T05:47:14.268Z,79.69
2016-12-02T05:48:14.282Z,79.12
2016-12-02T05:49:14.303Z,79.22
2016-12-02T05:50:14.309Z,78.93
2016-12-02T05:51:14.327Z,78.64
2016-12-02T05:52:14.338Z,78.55
2016-12-02T05:53:14.353Z,78.55
2016-12-02T05:54:14.363Z,78.27
2016-12-02T05:55:14.381Z,78.55
2016-12-02T05:56:14.394Z,78.17
2016-12-02T05:57:14.421Z,77.89
2016-12-02T05:58:14.419Z,77.98
2016-12-02T05:59:14.450Z,77.98
2016-12-02T06:00:14.477Z,77.89
2016-12-02T06:01:14.781Z,77.98
2016-12-02T06:02:14.478Z,77.7
2016-12-02T06:03:14.491Z,77.12
2016-12-02T06:04:14.507Z,77.22
2016-12-02T06:05:14.521Z,77.41
2016-12-02T06:06:14.547Z,76.93
2016-12-02T06:07:14.859Z,76.93
2016-12-02T06:08:14.555Z,77.03
2016-12-02T06:09:14.569Z,76.56
2016-12-02T06:10:14.584Z,76.93
2016-12-02T06:11:14.599Z,76.93
2016-12-02T06:12:14.612Z,76.65
2016-12-02T06:13:14.946Z,77.03
2016-12-02T06:14:14.662Z,76.65
2016-12-02T06:15:14.654Z,76.46
2016-12-02T06:16:14.668Z,76.56
2016-12-02T06:17:14.689Z,76.65
2016-12-02T06:18:14.691Z,76.75
2016-12-02T06:19:15.025Z,76.75
2016-12-02T06:20:14.726Z,76.65
2016-12-02T06:21:14.741Z,76.75
2016-12-02T06:22:14.746Z,76.37
2016-12-02T06:23:14.769Z,76.65
2016-12-02T06:24:14.774Z,76.84
2016-12-02T06:25:14.799Z,76.37
2016-12-02T06:26:14.800Z,77.03
2016-12-02T06:27:14.826Z,76.84
2016-12-02T06:28:14.835Z,77.03
2016-12-02T06:29:14.855Z,77.12
2016-12-02T06:30:14.859Z,76.93
2016-12-02T06:31:14.879Z,76.75
2016-12-02T06:32:14.909Z,76.37
2016-12-02T06:33:14.906Z,76.65
2016-12-02T06:34:14.914Z,76.56
2016-12-02T06:35:14.926Z,76.65
2016-12-02T06:36:14.940Z,76.65
2016-12-02T06:37:14.956Z,76.46
2016-12-02T06:38:14.967Z,76.18
2016-12-02T06:39:14.981Z,75.79
2016-12-02T06:40:14.994Z,75.89
2016-12-02T06:41:15.014Z,76.18
2016-12-02T06:42:15.022Z,76.18
2016-12-02T06:43:15.362Z,75.89
2016-12-02T06:44:15.046Z,75.89
2016-12-02T06:45:15.074Z,76.18
2016-12-02T06:46:15.079Z,76.37
2016-12-02T06:47:15.091Z,75.89
2016-12-02T06:48:15.098Z,75.51
2016-12-02T06:49:15.117Z,75.89
2016-12-02T06:50:15.132Z,75.79
2016-12-02T06:51:15.152Z,76.37
2016-12-02T06:52:15.156Z,76.14
2016-12-02T06:53:15.178Z,75.85
2016-12-02T06:54:15.184Z,75.89
2016-12-02T06:55:15.200Z,76.08
2016-12-02T06:56:15.527Z,75.99
2016-12-02T06:57:15.220Z,76.37
2016-12-02T06:58:15.235Z,75.47
2016-12-02T06:59:15.251Z,75.19
2016-12-02T07:00:15.263Z,75.76
2016-12-02T07:01:15.282Z,75.47
2016-12-02T07:02:15.292Z,75.85
2016-12-02T07:03:15.315Z,75.67
2016-12-02T07:04:15.317Z,74.81
2016-12-02T07:05:15.331Z,75.28
2016-12-02T07:06:15.344Z,75.19
2016-12-02T07:07:15.355Z,75.28
2016-12-02T07:08:15.370Z,75.67
2016-12-02T07:09:15.395Z,75.67
2016-12-02T07:10:15.399Z,75.85
2016-12-02T07:11:15.419Z,75.76
2016-12-02T07:12:15.429Z,75
2016-12-02T07:13:15.442Z,75.09
2016-12-02T07:14:15.450Z,75.19
2016-12-02T07:15:15.465Z,75.28
2016-12-02T07:16:15.475Z,75.19
2016-12-02T07:17:15.496Z,74.62
2016-12-02T07:18:15.501Z,75.19
2016-12-02T07:19:15.516Z,75.19
2016-12-02T07:20:15.530Z,75.19
2016-12-02T07:21:15.550Z,75.38
2016-12-02T07:22:15.564Z,74.9
2016-12-02T07:23:15.580Z,75.09
2016-12-02T07:24:15.583Z,75.09
2016-12-02T07:25:15.599Z,75.19
2016-12-02T07:26:15.612Z,75.28
2016-12-02T07:27:15.938Z,75.57
2016-12-02T07:28:15.644Z,74.9
2016-12-02T07:29:15.661Z,75.19
2016-12-02T07:30:15.663Z,74.33
2016-12-02T07:31:15.684Z,74.52
2016-12-02T07:32:15.692Z,74.62
2016-12-02T07:33:15.712Z,74.62
2016-12-02T07:34:15.716Z,73.96
2016-12-02T07:35:15.729Z,73.96
2016-12-02T07:36:15.743Z,73.86
2016-12-02T07:37:15.759Z,74.05
2016-12-02T07:38:15.772Z,74.33
2016-12-02T07:39:15.784Z,74.05
2016-12-02T07:40:15.798Z,73.96
2016-12-02T07:41:15.824Z,73.96
2016-12-02T07:42:15.829Z,74.05
2016-12-02T07:43:15.840Z,73.96
2016-12-02T07:44:15.847Z,73.96
2016-12-02T07:45:15.863Z,74.15
2016-12-02T07:46:15.928Z,73.96
2016-12-02T07:47:15.889Z,74.15
2016-12-02T07:48:15.904Z,74.52
2016-12-02T07:49:15.914Z,74.24
2016-12-02T07:50:15.928Z,73.96
2016-12-02T07:51:15.943Z,74.43
2016-12-02T07:52:15.956Z,74.43
2016-12-02T07:53:15.983Z,74.43
2016-12-02T07:54:15.981Z,74.33
2016-12-02T07:55:15.990Z,74.33
2016-12-02T07:56:16.009Z,74.52
2016-12-02T07:57:16.018Z,74.71
2016-12-02T07:58:16.031Z,74.52
2016-12-02T07:59:16.160Z,74.52
2016-12-02T08:00:16.056Z,74.33
2016-12-02T08:01:16.084Z,73.96
2016-12-02T08:02:16.199Z,73.86
2016-12-02T08:03:16.104Z,74.05
2016-12-02T08:04:16.108Z,74.05
2016-12-02T08:05:16.441Z,74.05
2016-12-02T08:06:16.249Z,73.96
2016-12-02T08:07:16.155Z,73.76
2016-12-02T08:08:16.158Z,74.15
2016-12-02T08:09:16.173Z,74.52
2016-12-02T08:10:16.182Z,74.33
2016-12-02T08:11:16.534Z,74.62
2016-12-02T08:12:16.332Z,75.19
2016-12-02T08:13:16.221Z,75.09
2016-12-02T08:14:16.238Z,75.57
2016-12-02T08:15:16.250Z,75.76
2016-12-02T08:16:16.261Z,75.95
2016-12-02T08:17:16.276Z,76.42
2016-12-02T08:18:16.287Z,76.42
2016-12-02T08:19:16.303Z,76.52
2016-12-02T08:20:16.312Z,76.61
2016-12-02T08:21:16.330Z,76.8
2016-12-02T08:22:16.341Z,75.95
2016-12-02T08:23:16.354Z,75.99
2016-12-02T08:24:16.367Z,75.95
2016-12-02T08:25:16.386Z,75.7
2016-12-02T08:26:16.397Z,75
2016-12-02T08:27:16.411Z,74.9
2016-12-02T08:28:16.418Z,75
2016-12-02T08:29:16.429Z,74.52
2016-12-02T08:30:16.446Z,74.71
2016-12-02T08:31:16.489Z,74.52
2016-12-02T08:32:16.472Z,74.52
2016-12-02T08:33:16.486Z,74.52
2016-12-02T08:34:16.499Z,74.62
2016-12-02T08:35:16.509Z,74.71
2016-12-02T08:36:16.527Z,74.52
2016-12-02T08:37:16.539Z,74.33
2016-12-02T08:38:16.552Z,74.15
2016-12-02T08:39:16.575Z,74.05
2016-12-02T08:40:16.579Z,74.15
2016-12-02T08:41:16.595Z,73.86
2016-12-02T08:42:16.604Z,74.24
2016-12-02T08:43:16.618Z,73.67
2016-12-02T08:44:16.631Z,73.38
2016-12-02T08:45:16.639Z,73.76
2016-12-02T08:46:16.654Z,73.67
2016-12-02T08:47:17.424Z,73.29
2016-12-02T08:48:16.683Z,73.48
2016-12-02T08:49:16.694Z,73.38
2016-12-02T08:50:16.707Z,73.48
2016-12-02T08:51:16.720Z,73.67
2016-12-02T08:52:16.731Z,73.86
2016-12-02T08:53:16.745Z,73.29
2016-12-02T08:54:16.756Z,73.29
2016-12-02T08:55:16.773Z,73.76
2016-12-02T08:56:16.782Z,73.57
2016-12-02T08:57:16.797Z,73.57
2016-12-02T08:58:16.809Z,73.48
2016-12-02T08:59:16.826Z,73.48
2016-12-02T09:00:16.838Z,73.19
2016-12-02T09:01:16.875Z,73.67
2016-12-02T09:02:16.863Z,73.38
2016-12-02T09:03:16.885Z,73.29
2016-12-02T09:04:16.889Z,73.48
2016-12-02T09:05:16.901Z,73
2016-12-02T09:06:16.912Z,72.53
2016-12-02T09:07:16.933Z,72.81
2016-12-02T09:08:16.939Z,72.72
2016-12-02T09:09:16.954Z,72.81
2016-12-02T09:10:16.965Z,72.72
2016-12-02T09:11:16.979Z,72.15
2016-12-02T09:12:16.993Z,72.44
2016-12-02T09:13:17.015Z,71.86
2016-12-02T09:14:17.019Z,71.86
2016-12-02T09:15:17.035Z,71.86
2016-12-02T09:16:17.045Z,71.67
2016-12-02T09:17:17.057Z,72.25
2016-12-02T09:18:17.069Z,71.86
2016-12-02T09:19:17.089Z,72.25
2016-12-02T09:20:17.099Z,71.67
2016-12-02T09:21:17.107Z,71.96
2016-12-02T09:22:17.120Z,72.15
2016-12-02T09:23:17.137Z,72.34
2016-12-02T09:24:17.148Z,72.81
2016-12-02T09:25:17.167Z,72.63
2016-12-02T09:26:17.173Z,72.91
2016-12-02T09:27:17.187Z,73.48
2016-12-02T09:28:17.227Z,73.96
2016-12-02T09:29:17.215Z,74.08
2016-12-02T09:30:17.227Z,73.9
2016-12-02T09:31:17.239Z,73.52
2016-12-02T09:32:17.255Z,73.71
2016-12-02T09:33:17.266Z,72.75
2016-12-02T09:34:17.277Z,72.38
2016-12-02T09:35:17.289Z,72.75
2016-12-02T09:36:17.304Z,72.75
2016-12-02T09:37:17.324Z,72.85
2016-12-02T09:38:17.331Z,72.66
2016-12-02T09:39:17.346Z,72.85
2016-12-02T09:40:17.362Z,72.28
2016-12-02T09:41:17.367Z,72.28
2016-12-02T09:42:17.383Z,72.75
2016-12-02T09:43:17.397Z,72.85
2016-12-02T09:44:17.408Z,72
2016-12-02T09:45:17.425Z,72
2016-12-02T09:46:17.484Z,71.9
2016-12-02T09:47:17.445Z,71.62
2016-12-02T09:48:17.462Z,71.23
2016-12-02T09:49:17.476Z,71.14
2016-12-02T09:50:17.488Z,71.71
2016-12-02T09:51:17.809Z,71.52
2016-12-02T09:52:17.516Z,70.76
2016-12-02T09:53:17.527Z,71.14
2016-12-02T09:54:17.539Z,71.43
2016-12-02T09:55:17.551Z,71.23
2016-12-02T09:56:17.574Z,71.43
2016-12-02T09:57:17.582Z,71.43
2016-12-02T09:58:17.593Z,71.33
2016-12-02T09:59:17.603Z,71.33
2016-12-02T10:00:17.620Z,71.33
2016-12-02T10:01:17.635Z,71.62
2016-12-02T10:02:17.652Z,71.9
2016-12-02T10:03:17.659Z,72.19
2016-12-02T10:04:17.673Z,71.14
2016-12-02T10:05:17.688Z,71.52
2016-12-02T10:06:17.697Z,70.95
2016-12-02T10:07:17.712Z,70.95
2016-12-02T10:08:17.723Z,70.29
2016-12-02T10:09:17.737Z,70.38
2016-12-02T10:10:17.749Z,70.38
2016-12-02T10:11:17.762Z,70.67
2016-12-02T10:12:17.781Z,70
2016-12-02T10:13:17.789Z,70.1
2016-12-02T10:14:17.804Z,70.57
2016-12-02T10:15:17.816Z,70.76
2016-12-02T10:16:17.831Z,70.29
2016-12-02T10:17:17.842Z,70.19
2016-12-02T10:18:17.859Z,70.19
2016-12-02T10:19:17.876Z,70.57
2016-12-02T10:20:17.885Z,69.91
2016-12-02T10:21:17.894Z,69.81
2016-12-02T10:22:18.230Z,70
2016-12-02T10:23:17.929Z,69.62
2016-12-02T10:24:17.934Z,69.43
2016-12-02T10:25:17.950Z,70.19
2016-12-02T10:26:17.961Z,70.19
2016-12-02T10:27:17.977Z,69.81
2016-12-02T10:28:17.988Z,70.29
2016-12-02T10:29:18.003Z,70.1
2016-12-02T10:30:18.129Z,70.29
2016-12-02T10:31:18.148Z,70.48
2016-12-02T10:32:18.246Z,70
2016-12-02T10:33:18.255Z,70.19
2016-12-02T10:34:18.264Z,70.19
2016-12-02T10:35:18.180Z,70.29
2016-12-02T10:36:18.292Z,70.1
2016-12-02T10:37:18.188Z,69.15
2016-12-02T10:38:18.196Z,69.34
2016-12-02T10:39:18.205Z,69.05
2016-12-02T10:40:18.212Z,68.96
2016-12-02T10:41:18.270Z,69.15
2016-12-02T10:42:18.263Z,69.43
2016-12-02T10:43:18.267Z,69.62
2016-12-02T10:44:18.276Z,69.43
2016-12-02T10:45:18.289Z,69.24
2016-12-02T10:46:18.376Z,69.24
2016-12-02T10:47:18.314Z,69.05
2016-12-02T10:48:18.365Z,68.96
2016-12-02T10:49:18.261Z,69.24
2016-12-02T10:50:18.277Z,68.96
2016-12-02T10:51:18.299Z,69.05
2016-12-02T10:52:18.304Z,69.15
2016-12-02T10:53:18.317Z,69.05
2016-12-02T10:54:18.331Z,68.86
2016-12-02T10:55:18.342Z,68.77
2016-12-02T10:56:18.408Z,68.86
2016-12-02T10:57:18.367Z,69.15
2016-12-02T10:58:18.498Z,68.39
2016-12-02T10:59:18.396Z,69.15
2016-12-02T11:00:18.408Z,68.39
2016-12-02T11:01:18.423Z,68.96
2016-12-02T11:02:18.435Z,68.96
2016-12-02T11:03:18.583Z,68.86
2016-12-02T11:04:18.462Z,68.86
2016-12-02T11:05:18.478Z,69.15
2016-12-02T11:06:18.488Z,68.19
2016-12-02T11:07:18.510Z,68.19
2016-12-02T11:08:18.515Z,69.15
2016-12-02T11:09:18.531Z,68.1
2016-12-02T11:10:18.544Z,68.39
2016-12-02T11:11:18.566Z,68.77
2016-12-02T11:12:18.671Z,69.09
2016-12-02T11:13:18.582Z,68.99
2016-12-02T11:14:18.594Z,68.9
2016-12-02T11:15:18.612Z,69.15
2016-12-02T11:16:18.631Z,68.8
2016-12-02T11:17:18.635Z,68.71
2016-12-02T11:18:18.964Z,68.52
2016-12-02T11:19:18.661Z,68.42
2016-12-02T11:20:18.679Z,68.04
2016-12-02T11:21:18.687Z,68.23
2016-12-02T11:22:18.700Z,68.33
2016-12-02T11:23:18.713Z,68.42
2016-12-02T11:24:18.733Z,69.09
2016-12-02T11:25:18.744Z,69.18
2016-12-02T11:26:18.758Z,68.42
2016-12-02T11:27:18.834Z,68.23
2016-12-02T11:28:18.782Z,68.71
2016-12-02T11:29:18.793Z,68.99
2016-12-02T11:30:18.854Z,68.9
2016-12-02T11:31:18.822Z,69.46
2016-12-02T11:32:18.838Z,69.09
2016-12-02T11:33:18.848Z,68.71
2016-12-02T11:34:18.863Z,68.8
2016-12-02T11:35:18.877Z,69.18
2016-12-02T11:36:19.070Z,69.09
2016-12-02T11:37:18.939Z,68.23
2016-12-02T11:38:18.949Z,68.42
2016-12-02T11:39:18.955Z,67.57
2016-12-02T11:40:18.973Z,67.38
2016-12-02T11:41:19.158Z,68.42
2016-12-02T11:42:19.015Z,67.28
2016-12-02T11:43:19.021Z,67.57
2016-12-02T11:44:19.032Z,67.47
2016-12-02T11:45:19.029Z,66.71
2016-12-02T11:46:19.041Z,67.47
2016-12-02T11:47:19.047Z,67.38
2016-12-02T11:48:19.059Z,66.71
2016-12-02T11:49:19.065Z,67.66
2016-12-02T11:50:19.109Z,67.47
2016-12-02T11:51:19.097Z,67.47
2016-12-02T11:52:19.108Z,67.57
2016-12-02T11:53:19.122Z,67.94
2016-12-02T11:54:19.139Z,68.52
2016-12-02T11:55:19.147Z,68.42
2016-12-02T11:56:19.163Z,68.52
2016-12-02T11:57:19.182Z,68.23
2016-12-02T11:58:19.187Z,67.85
2016-12-02T11:59:19.206Z,67.85
2016-12-02T12:00:19.215Z,67.28
2016-12-02T12:01:19.231Z,68.23
2016-12-02T12:02:19.249Z,67.66
2016-12-02T12:03:19.259Z,67.57
2016-12-02T12:04:19.269Z,67.19
2016-12-02T12:05:19.283Z,66.8
2016-12-02T12:06:19.299Z,66.9
2016-12-02T12:07:19.316Z,67.38
2016-12-02T12:08:19.331Z,66.52
2016-12-02T12:09:19.340Z,67.19
2016-12-02T12:10:19.352Z,67.47
2016-12-02T12:11:19.369Z,67.57
2016-12-02T12:12:19.385Z,67.47
2016-12-02T12:13:19.394Z,67.28
2016-12-02T12:14:19.418Z,67.76
2016-12-02T12:15:19.425Z,68.52
2016-12-02T12:16:19.437Z,68.42
2016-12-02T12:17:19.450Z,68.33
2016-12-02T12:18:19.469Z,68.52
2016-12-02T12:19:19.474Z,68.46
2016-12-02T12:20:19.490Z,68.04
2016-12-02T12:21:19.505Z,68.27
2016-12-02T12:22:19.524Z,68.27
2016-12-02T12:23:19.532Z,67.5
2016-12-02T12:24:19.551Z,67.79
2016-12-02T12:25:19.560Z,67.88
2016-12-02T12:26:19.572Z,67.66
2016-12-02T12:27:19.590Z,67.69
2016-12-02T12:28:19.599Z,67.79
2016-12-02T12:29:19.615Z,67.32
2016-12-02T12:30:19.629Z,66.94
2016-12-02T12:31:19.643Z,66.65
2016-12-02T12:32:19.659Z,67.69
2016-12-02T12:33:19.672Z,67.41
2016-12-02T12:34:19.684Z,67.69
2016-12-02T12:35:19.697Z,67.79
2016-12-02T12:36:19.714Z,67.88
2016-12-02T12:37:19.726Z,67.41
2016-12-02T12:38:19.805Z,67.5
2016-12-02T12:39:19.781Z,67.6
2016-12-02T12:40:19.773Z,67.32
2016-12-02T12:41:19.780Z,67.69
2016-12-02T12:42:19.796Z,66.94
2016-12-02T12:43:19.810Z,66.94
2016-12-02T12:44:19.825Z,66.65
2016-12-02T12:45:19.840Z,66.36
2016-12-02T12:46:19.851Z,66.65
2016-12-02T12:47:19.862Z,66.08
2016-12-02T12:48:19.881Z,65.99
2016-12-02T12:49:19.966Z,66.08
2016-12-02T12:50:19.989Z,66.08
2016-12-02T12:51:20.002Z,66.36
2016-12-02T12:52:20.008Z,66.46
2016-12-02T12:53:20.016Z,65.7
2016-12-02T12:54:20.024Z,66.08
2016-12-02T12:55:19.976Z,65.7